createdAt,value
2022-08-03T00:03:47.918Z,18
2022-08-03T00:08:47.901Z,17.9
2022-08-03T00:13:47.913Z,17.8
2022-08-03T00:24:04.163Z,17.6
2022-08-03T00:28:48.258Z,17.6
2022-08-03T00:33:57.851Z,17.4
2022-08-03T00:38:48.002Z,17.4
2022-08-03T00:43:47.944Z,17.4
2022-08-03T00:48:47.928Z,17.3
2022-08-03T00:53:47.974Z,17.2
2022-08-03T00:58:47.946Z,17.1
2022-08-03T01:03:47.997Z,17
2022-08-03T01:08:47.996Z,17.1
2022-08-03T01:14:01.808Z,17.1
2022-08-03T01:18:47.962Z,16.9
2022-08-03T01:23:47.975Z,16.7
2022-08-03T01:28:47.921Z,16.5
2022-08-03T01:33:47.918Z,16.4
2022-08-03T01:38:48.009Z,16.3
2022-08-03T01:43:55.670Z,16.1
2022-08-03T01:48:47.959Z,16.1
2022-08-03T01:53:47.919Z,16.1
2022-08-03T01:58:47.996Z,16.1
2022-08-03T02:03:53.579Z,16.1
2022-08-03T02:08:47.944Z,16.1
2022-08-03T02:13:47.957Z,16.1
2022-08-03T02:18:47.955Z,15.9
2022-08-03T02:23:47.944Z,16
2022-08-03T02:28:47.942Z,15.9
2022-08-03T02:33:47.979Z,15.8
2022-08-03T02:38:47.988Z,15.7
2022-08-03T02:44:05.399Z,15.7
2022-08-03T02:48:48.023Z,15.7
2022-08-03T02:53:47.972Z,15.6
2022-08-03T02:58:48.112Z,15.5
2022-08-03T03:03:48.029Z,15.4
2022-08-03T03:08:48.010Z,15.3
2022-08-03T03:13:48.032Z,15.3
2022-08-03T03:18:50.135Z,15.2
2022-08-03T03:23:47.997Z,15.2
2022-08-03T03:28:47.977Z,15.3
2022-08-03T03:33:47.949Z,15.3
2022-08-03T03:38:48.040Z,15.2
2022-08-03T03:43:47.975Z,15.1
2022-08-03T03:48:48.088Z,15.1
2022-08-03T03:53:48.115Z,15.1
2022-08-03T03:58:48.033Z,15.1
2022-08-03T04:03:49.245Z,15.1
2022-08-03T04:08:48.037Z,15.1
2022-08-03T04:13:47.999Z,15
2022-08-03T04:18:47.998Z,15.1
2022-08-03T04:23:47.951Z,15.1
2022-08-03T04:28:48.115Z,15.1
2022-08-03T04:33:48.036Z,15.3
2022-08-03T04:38:47.990Z,15.3
2022-08-03T04:43:48.022Z,15.4
2022-08-03T04:48:49.647Z,15.5
2022-08-03T04:53:48.153Z,15.6
2022-08-03T04:58:48.130Z,15.8
2022-08-03T05:03:48.078Z,16
2022-08-03T05:08:48.856Z,16.3
2022-08-03T05:13:48.052Z,16.3
2022-08-03T05:18:48.000Z,16.4
2022-08-03T05:23:47.997Z,16.7
2022-08-03T05:28:50.040Z,16.9
2022-08-03T05:33:49.899Z,17.1
2022-08-03T05:38:48.049Z,17.4
2022-08-03T05:43:47.983Z,17.6
2022-08-03T05:48:48.007Z,17.8
2022-08-03T05:53:48.032Z,17.8
2022-08-03T05:58:48.138Z,18.1
2022-08-03T06:03:49.176Z,18.4
2022-08-03T06:08:48.018Z,18.7
2022-08-03T06:13:48.009Z,18.9
2022-08-03T06:18:47.992Z,19.2
2022-08-03T06:23:52.679Z,19.5
2022-08-03T06:28:52.132Z,19.7
2022-08-03T06:33:48.278Z,19.8
2022-08-03T06:38:50.403Z,19.9
2022-08-03T06:44:02.893Z,20.1
2022-08-03T06:48:48.032Z,20.4
2022-08-03T06:53:48.035Z,21
2022-08-03T06:58:48.192Z,21
2022-08-03T07:03:52.196Z,21.1
2022-08-03T07:08:51.528Z,21.6
2022-08-03T07:13:48.138Z,21.8
2022-08-03T07:18:48.144Z,21.9
2022-08-03T07:23:48.150Z,22.1
2022-08-03T07:28:49.378Z,22.1
2022-08-03T07:38:48.054Z,23.3
2022-08-03T07:43:48.077Z,23.4
2022-08-03T07:48:48.089Z,23.9
2022-08-03T07:53:49.576Z,23.8
2022-08-03T10:04:33.909Z,30.6
2022-08-03T10:09:33.842Z,31.1
2022-08-03T10:14:33.855Z,32.1
2022-08-03T10:19:33.933Z,33.1
2022-08-03T10:24:33.810Z,32.9
2022-08-03T10:29:33.879Z,33.8
2022-08-03T10:34:33.834Z,33.1
2022-08-03T10:39:33.921Z,34.1
2022-08-03T10:44:33.976Z,34.3
2022-08-03T10:49:35.438Z,33.6
2022-08-03T10:54:34.244Z,33.3
2022-08-03T10:59:33.876Z,32.6
2022-08-03T11:04:33.861Z,33.4
2022-08-03T11:19:37.951Z,33.4
2022-08-03T11:29:38.391Z,34.3
2022-08-03T11:39:37.858Z,34.8
2022-08-03T11:44:37.889Z,35.4
2022-08-03T11:49:37.880Z,34.5
2022-08-03T11:54:37.992Z,35.6
2022-08-03T11:59:38.709Z,36.1
2022-08-03T12:04:37.911Z,37
2022-08-03T12:09:37.865Z,35.7
2022-08-03T12:14:47.006Z,33.6
2022-08-03T12:49:37.973Z,37.3
2022-08-03T12:54:37.883Z,38
2022-08-03T12:59:40.586Z,38.7
2022-08-03T13:04:37.896Z,39
2022-08-03T13:09:37.917Z,40.1
2022-08-03T13:14:37.881Z,39.6
2022-08-03T13:19:37.974Z,40.9
2022-08-03T13:24:37.957Z,40.9
2022-08-03T13:29:38.007Z,40.3
2022-08-03T13:34:38.359Z,40.9
2022-08-03T13:39:48.081Z,40.7
2022-08-03T13:44:37.911Z,40.5
2022-08-03T13:49:37.974Z,40
2022-08-03T13:54:37.925Z,38.4
2022-08-03T13:59:37.900Z,36.9
2022-08-03T14:04:37.958Z,38.6
2022-08-03T14:09:37.992Z,36.7
2022-08-03T14:14:37.975Z,37.6
2022-08-03T14:19:52.800Z,37.6
2022-08-03T14:24:37.997Z,36.9
2022-08-03T14:29:37.988Z,37.2
2022-08-03T14:34:38.076Z,35.9
2022-08-03T14:40:00.864Z,36.1
2022-08-03T14:44:37.997Z,36.8
2022-08-03T14:50:35.329Z,36.7
2022-08-03T14:54:37.947Z,36.9
2022-08-03T14:59:54.043Z,36
2022-08-03T15:04:37.977Z,35.9
2022-08-03T15:09:37.959Z,36.1
2022-08-03T15:14:38.045Z,36.8
2022-08-03T15:20:00.143Z,36.9
2022-08-03T15:24:38.000Z,36.5
2022-08-03T15:30:06.638Z,36
2022-08-03T15:34:37.993Z,36.3
2022-08-03T15:39:58.611Z,36.3
2022-08-03T15:44:38.012Z,36.6
2022-08-03T15:49:37.994Z,36.6
2022-08-03T15:54:38.815Z,36.3
2022-08-03T15:59:38.419Z,36.1
2022-08-03T16:04:37.988Z,35.8
2022-08-03T16:09:42.623Z,35.9
2022-08-03T16:14:46.983Z,35.9
2022-08-03T16:19:38.049Z,37
2022-08-03T16:24:38.064Z,37.8
2022-08-03T16:29:38.278Z,39.4
2022-08-03T16:34:38.012Z,38.8
2022-08-03T16:39:38.211Z,38.2
2022-08-03T16:44:38.050Z,37.9
2022-08-03T16:49:53.393Z,38.1
2022-08-03T16:54:38.006Z,37.8
2022-08-03T16:59:39.291Z,36.8
2022-08-03T17:04:40.075Z,36.8
2022-08-03T17:09:38.129Z,35.4
2022-08-03T17:14:38.031Z,33.9
2022-08-03T17:19:38.084Z,32.8
2022-08-03T17:24:40.892Z,32
2022-08-03T17:29:38.028Z,31.8
2022-08-03T17:34:38.011Z,31.7
2022-08-03T17:39:56.061Z,31.6
2022-08-03T17:44:46.291Z,31.5
2022-08-03T17:49:39.945Z,31.3
2022-08-03T17:55:50.371Z,31.3
2022-08-03T17:59:51.253Z,31.1
2022-08-03T18:04:38.033Z,31.1
2022-08-03T18:10:05.413Z,30.9
2022-08-03T18:14:38.035Z,30.6
2022-08-03T18:20:03.838Z,30.4
2022-08-03T18:24:38.076Z,30.2
2022-08-03T18:29:38.100Z,29.8
2022-08-03T18:34:41.059Z,29.7
2022-08-03T18:39:39.125Z,29.4
2022-08-03T18:44:53.656Z,29.1
2022-08-03T18:49:38.098Z,28.8
2022-08-03T18:54:46.341Z,28.6
2022-08-03T18:59:38.061Z,28.3
2022-08-03T19:04:38.170Z,28
2022-08-03T19:09:38.139Z,27.7
2022-08-03T19:14:39.309Z,27.5
2022-08-03T19:19:43.761Z,27.4
2022-08-03T19:24:38.041Z,27.2
2022-08-03T19:34:38.264Z,26.9
2022-08-03T19:39:38.177Z,26.8
2022-08-03T19:44:38.082Z,26.6
2022-08-03T19:49:57.168Z,26.6
2022-08-03T19:54:39.546Z,26.4
2022-08-03T19:59:49.760Z,26.4
2022-08-03T20:04:38.116Z,26.3
2022-08-03T20:09:38.106Z,26.1
2022-08-03T20:14:38.131Z,26.1
2022-08-03T20:19:38.253Z,26.1
2022-08-03T20:24:38.173Z,25.9
2022-08-03T20:29:42.847Z,25.7
2022-08-03T20:34:38.065Z,25.1
2022-08-03T20:39:38.176Z,21.6
2022-08-03T20:44:38.663Z,21.4
2022-08-03T20:49:45.557Z,22.1
2022-08-03T20:54:38.147Z,22.4
2022-08-03T20:59:47.732Z,22.9
2022-08-03T21:04:38.135Z,23.2
2022-08-03T21:09:40.460Z,23.4
2022-08-03T21:13:06.426Z,27
2022-08-03T21:14:38.130Z,23.3
2022-08-03T21:19:38.181Z,23.3
2022-08-03T21:24:38.182Z,23.3
2022-08-03T21:29:52.764Z,23.3
2022-08-03T21:34:38.134Z,23.4
2022-08-03T21:39:38.449Z,23.3
2022-08-03T21:44:38.120Z,23.3
2022-08-03T21:49:52.430Z,23.1
2022-08-03T21:54:38.094Z,23.1
2022-08-03T21:59:38.151Z,23.1
2022-08-03T22:04:38.819Z,22.9
2022-08-03T22:09:38.243Z,22.8
2022-08-03T22:14:38.324Z,22.9
2022-08-03T22:19:38.182Z,22.9
2022-08-03T22:24:38.212Z,23.1
2022-08-03T22:29:38.125Z,22.9
2022-08-03T22:34:38.114Z,22.9
2022-08-03T22:39:38.263Z,22.9
2022-08-03T22:44:38.133Z,22.9
2022-08-03T22:49:38.174Z,22.8
2022-08-03T22:54:38.180Z,22.7
2022-08-03T22:59:42.064Z,22.5
2022-08-03T23:04:38.156Z,22.3
2022-08-03T23:09:38.176Z,22.1
2022-08-03T23:14:38.167Z,21.9
2022-08-03T23:19:39.788Z,21.7
2022-08-03T23:24:40.279Z,21.6
2022-08-03T23:29:38.239Z,21.4
2022-08-03T23:34:38.170Z,21.3
2022-08-03T23:39:38.777Z,21.2
2022-08-03T23:44:38.169Z,21.1
2022-08-03T23:49:38.182Z,21.1
2022-08-03T23:54:38.156Z,21.1
2022-08-03T23:59:38.197Z,21
